Weather at General Edward Lawrence Logan International Airport

Public forecast

Using degrees Fahrenheit for public forecast. Weather courtesy of forecast.io.

Current aviation weather report (METAR) for General Edward Lawrence Logan International Airport

Retrieved 2021/01/17 22:54 UTC (51 minutes ago):

KBOS 172254Z 24012KT 10SM BKN050 OVC220 04/M04 A2953 RMK AO2 SLP998 T00441039

Aviation forecast (TAF) for General Edward Lawrence Logan International Airport

Retrieved 2021/01/17 18:46 UTC (5 hours ago):

TAF KBOS 171738Z 1718/1824 25018G37KT P6SM BKN050 FM172200 26017G32KT P6SM SCT040 FM180000 25014G28KT P6SM FEW040 FM180500 24013KT P6SM FEW100 FM181400 26012G23KT P6SM BKN050 FM182300 28012G24KT P6SM BKN070